createdAt,value
2018-09-25T00:02:49.290Z,83.50
2018-09-25T00:07:57.902Z,83.93
2018-09-25T00:13:06.556Z,83.17
2018-09-25T00:18:15.226Z,83.42
2018-09-25T00:23:23.806Z,82.94
2018-09-25T00:28:32.482Z,81.94
2018-09-25T00:33:40.986Z,83.06
2018-09-25T00:38:49.688Z,83.08
2018-09-25T00:43:58.391Z,82.44
2018-09-25T00:49:07.215Z,82.63
2018-09-25T00:54:15.952Z,82.28
2018-09-25T00:59:24.549Z,82.80
2018-09-25T01:04:33.323Z,82.44
2018-09-25T01:09:41.998Z,82.98
2018-09-25T01:14:50.731Z,83.52
2018-09-25T01:19:59.641Z,84.02
2018-09-25T01:25:08.393Z,83.66
2018-09-25T01:30:17.202Z,84.46
2018-09-25T01:35:25.773Z,84.49
2018-09-25T01:40:34.675Z,84.47
2018-09-25T01:45:43.406Z,84.15
2018-09-25T01:50:52.119Z,83.80
2018-09-25T01:56:00.851Z,84.50
2018-09-25T02:01:09.450Z,84.16
2018-09-25T02:06:18.035Z,84.48
2018-09-25T02:11:26.596Z,84.61
2018-09-25T02:16:35.350Z,84.59
2018-09-25T02:21:43.991Z,84.62
2018-09-25T02:26:52.716Z,84.83
2018-09-25T02:32:01.360Z,84.51
2018-09-25T02:37:10.187Z,84.60
2018-09-25T02:42:18.930Z,84.52
2018-09-25T02:47:27.671Z,84.76
2018-09-25T02:52:36.417Z,84.10
2018-09-25T02:57:44.987Z,84.70
2018-09-25T03:02:53.657Z,84.12
2018-09-25T03:08:02.176Z,83.94
2018-09-25T03:13:10.866Z,84.29
2018-09-25T03:18:19.646Z,84.94
2018-09-25T03:23:28.330Z,85.37
2018-09-25T03:28:36.913Z,85.04
2018-09-25T03:33:45.459Z,84.65
2018-09-25T03:38:54.116Z,84.78
2018-09-25T03:44:02.738Z,85.11
2018-09-25T03:49:11.481Z,84.91
2018-09-25T03:54:20.174Z,85.12
2018-09-25T03:59:29.618Z,84.53
2018-09-25T04:04:38.200Z,84.51
2018-09-25T04:09:47.042Z,84.24
2018-09-25T04:14:55.598Z,84.84
2018-09-25T04:20:04.345Z,84.67
2018-09-25T04:25:13.142Z,84.61
2018-09-25T04:30:21.828Z,84.67
2018-09-25T04:35:30.431Z,84.82
2018-09-25T04:40:39.288Z,84.37
2018-09-25T04:45:48.115Z,84.75
2018-09-25T04:50:57.160Z,84.61
2018-09-25T04:56:05.898Z,84.79
2018-09-25T05:01:14.578Z,83.89
2018-09-25T05:06:23.258Z,84.40
2018-09-25T05:11:32.067Z,84.10
2018-09-25T05:16:40.775Z,84.31
2018-09-25T05:21:49.536Z,84.87
2018-09-25T05:26:58.211Z,84.45
2018-09-25T05:32:07.023Z,84.42
2018-09-25T05:37:15.590Z,84.55
2018-09-25T05:42:24.240Z,85.26
2018-09-25T05:47:32.868Z,85.14
2018-09-25T05:52:41.891Z,85.08
2018-09-25T05:57:50.545Z,84.58
2018-09-25T06:08:44.406Z,84.90
2018-09-25T06:13:53.170Z,84.57
2018-09-25T06:19:01.862Z,84.67
2018-09-25T06:24:10.778Z,84.71
2018-09-25T06:29:19.615Z,84.50
2018-09-25T06:34:28.309Z,84.57
2018-09-25T06:39:37.083Z,84.19
2018-09-25T06:44:45.896Z,83.89
2018-09-25T06:49:54.649Z,83.88
2018-09-25T06:55:03.345Z,83.66
2018-09-25T07:00:12.084Z,83.76
2018-09-25T07:05:20.913Z,83.79
2018-09-25T07:10:29.766Z,83.83
2018-09-25T07:15:38.263Z,84.04
2018-09-25T07:20:47.064Z,83.76
2018-09-25T07:25:55.605Z,83.92
2018-09-25T07:31:04.530Z,83.63
2018-09-25T07:36:13.220Z,84.12
2018-09-25T07:41:21.830Z,83.47
2018-09-25T07:46:30.641Z,83.85
2018-09-25T07:51:39.487Z,83.76
2018-09-25T07:56:48.194Z,83.46
2018-09-25T08:01:56.781Z,83.77
2018-09-25T08:07:05.364Z,83.17
2018-09-25T08:12:14.073Z,82.28
2018-09-25T08:17:22.903Z,82.25
2018-09-25T08:22:31.479Z,81.76
2018-09-25T08:27:40.320Z,81.93
2018-09-25T08:32:49.102Z,81.03
2018-09-25T08:37:57.805Z,80.90
2018-09-25T08:43:06.530Z,80.82
2018-09-25T08:48:15.279Z,79.59
2018-09-25T08:53:23.961Z,78.76
2018-09-25T08:58:32.671Z,78.63
2018-09-25T09:03:41.479Z,77.68
2018-09-25T09:08:50.187Z,77.32
2018-09-25T09:13:58.798Z,75.53
2018-09-25T09:19:07.505Z,72.85
2018-09-25T09:24:16.381Z,70.91
2018-09-25T09:29:25.173Z,71.18
2018-09-25T09:34:33.955Z,70.09
2018-09-25T09:39:42.707Z,70.73
2018-09-25T09:44:51.436Z,70.75
2018-09-25T09:50:00.159Z,69.93
2018-09-25T09:55:08.852Z,68.55
2018-09-25T10:00:17.464Z,68.66
2018-09-25T10:05:26.219Z,67.92
2018-09-25T10:10:35.050Z,67.83
2018-09-25T10:15:43.762Z,64.75
2018-09-25T10:20:52.464Z,64.79
2018-09-25T10:26:01.355Z,64.53
2018-09-25T10:31:10.144Z,64.84
2018-09-25T10:36:20.007Z,64.33
2018-09-25T10:41:29.844Z,64.08
2018-09-25T10:46:39.175Z,61.55
2018-09-25T10:51:48.198Z,59.90
2018-09-25T10:56:57.981Z,59.33
2018-09-25T11:02:07.303Z,57.51
2018-09-25T11:07:16.208Z,57.71
2018-09-25T11:12:25.572Z,57.28
2018-09-25T11:17:35.209Z,56.21
2018-09-25T11:22:44.656Z,53.80
2018-09-25T11:27:54.031Z,52.56
2018-09-25T11:33:02.943Z,54.50
2018-09-25T11:38:12.196Z,55.36
2018-09-25T11:43:21.543Z,56.35
2018-09-25T11:48:30.262Z,56.67
2018-09-25T11:53:39.811Z,56.45
2018-09-25T11:58:48.698Z,56.00
2018-09-25T12:03:57.308Z,56.02
2018-09-25T12:09:06.926Z,55.49
2018-09-25T12:14:16.337Z,55.48
2018-09-25T12:19:25.956Z,55.42
2018-09-25T12:24:35.229Z,54.75
2018-09-25T12:29:44.539Z,52.79
2018-09-25T12:34:53.232Z,52.11
2018-09-25T12:40:01.919Z,49.85
2018-09-25T12:45:10.762Z,49.45
2018-09-25T12:58:23.723Z,51.98
2018-09-25T13:03:32.785Z,53.18
2018-09-25T13:08:41.991Z,54.04
2018-09-25T13:13:51.433Z,52.62
2018-09-25T13:19:01.901Z,52.45
2018-09-25T13:24:10.579Z,51.57
2018-09-25T13:29:19.288Z,50.69
2018-09-25T13:34:27.943Z,51.65
2018-09-25T13:39:36.770Z,51.91
2018-09-25T13:44:45.372Z,52.60
2018-09-25T13:49:54.113Z,52.37
2018-09-25T13:55:02.701Z,49.11
2018-09-25T14:00:11.642Z,50.07
2018-09-25T14:05:20.231Z,52.47
2018-09-25T14:10:28.904Z,52.48
2018-09-25T14:15:37.530Z,52.08
2018-09-25T14:20:46.190Z,52.65
2018-09-25T14:25:54.820Z,50.98
2018-09-25T14:31:03.534Z,50.84
2018-09-25T14:36:12.363Z,50.35
2018-09-25T14:41:20.911Z,50.37
2018-09-25T14:46:29.670Z,50.27
2018-09-25T14:51:38.427Z,49.78
2018-09-25T14:56:47.224Z,48.61
2018-09-25T15:01:55.934Z,49.24
2018-09-25T15:07:04.588Z,50.38
2018-09-25T15:12:13.292Z,51.34
2018-09-25T15:17:22.248Z,52.53
2018-09-25T15:22:30.938Z,53.00
2018-09-25T15:27:40.029Z,53.24
2018-09-25T15:32:48.629Z,54.63
2018-09-25T15:37:57.325Z,55.08
2018-09-25T15:43:06.203Z,54.66
2018-09-25T15:48:15.000Z,54.54
2018-09-25T15:53:23.700Z,54.10
2018-09-25T15:58:32.351Z,53.58
2018-09-25T16:03:40.915Z,54.37
2018-09-25T16:08:49.484Z,55.21
2018-09-25T16:13:58.140Z,56.60
2018-09-25T16:19:06.835Z,58.81
2018-09-25T16:24:15.700Z,59.51
2018-09-25T16:29:24.519Z,60.46
2018-09-25T16:34:33.115Z,60.52
2018-09-25T16:39:41.831Z,61.61
2018-09-25T16:44:50.362Z,61.36
2018-09-25T16:49:59.256Z,61.32
2018-09-25T16:55:08.080Z,61.48
2018-09-25T17:00:16.898Z,61.45
2018-09-25T17:05:25.499Z,62.43
2018-09-25T17:10:34.069Z,62.84
2018-09-25T17:15:42.599Z,63.20
2018-09-25T17:20:51.145Z,63.40
2018-09-25T17:25:59.781Z,64.81
2018-09-25T17:31:08.587Z,65.61
2018-09-25T17:36:17.666Z,66.73
2018-09-25T17:41:27.676Z,67.15
2018-09-25T17:46:36.523Z,67.56
2018-09-25T17:51:46.533Z,68.80
2018-09-25T17:56:56.228Z,69.44
2018-09-25T18:02:07.597Z,70.25
2018-09-25T18:07:17.481Z,69.29
2018-09-25T18:12:27.197Z,69.01
2018-09-25T18:17:36.948Z,69.52
2018-09-25T18:22:46.458Z,69.03
2018-09-25T18:27:57.247Z,69.77
2018-09-25T18:33:07.427Z,70.07
2018-09-25T18:38:17.272Z,70.90
2018-09-25T18:43:26.866Z,70.50
2018-09-25T18:48:36.582Z,70.84
2018-09-25T18:53:46.213Z,71.36
2018-09-25T18:58:57.490Z,71.94
2018-09-25T19:04:07.406Z,72.12
2018-09-25T19:09:16.498Z,72.31
2018-09-25T19:14:25.423Z,73.24
2018-09-25T19:19:34.018Z,73.60
2018-09-25T19:24:42.879Z,73.79
2018-09-25T19:29:52.736Z,74.04
2018-09-25T19:35:03.890Z,73.87
2018-09-25T19:40:15.016Z,74.27
2018-09-25T19:45:25.952Z,74.30
2018-09-25T19:50:35.939Z,74.64
2018-09-25T19:55:47.610Z,74.36
2018-09-25T20:00:59.568Z,74.54
2018-09-25T20:06:10.481Z,74.49
2018-09-25T20:11:19.472Z,74.89
2018-09-25T20:16:30.158Z,74.76
2018-09-25T20:21:38.882Z,74.75
2018-09-25T20:26:47.773Z,74.72
2018-09-25T20:31:56.335Z,74.75
2018-09-25T20:37:05.541Z,75.39
2018-09-25T20:42:15.253Z,74.46
2018-09-25T20:47:24.978Z,75.39
2018-09-25T20:52:33.974Z,75.43
2018-09-25T20:57:42.545Z,75.18
2018-09-25T21:02:51.224Z,74.79
2018-09-25T21:07:59.859Z,75.05
2018-09-25T21:13:08.433Z,75.14
2018-09-25T21:18:17.140Z,75.10
2018-09-25T21:23:25.961Z,75.40
2018-09-25T21:28:34.562Z,75.21
2018-09-25T21:33:43.303Z,75.41
2018-09-25T21:38:52.040Z,74.77
2018-09-25T21:44:00.711Z,74.73
2018-09-25T21:49:09.432Z,75.06
2018-09-25T21:54:17.963Z,75.23
2018-09-25T21:59:26.726Z,75.00
2018-09-25T22:04:35.599Z,74.87
2018-09-25T22:09:44.351Z,75.00
2018-09-25T22:14:53.159Z,74.86
2018-09-25T22:20:01.970Z,74.64
2018-09-25T22:25:10.769Z,74.33
2018-09-25T22:30:19.559Z,74.50
2018-09-25T22:35:28.344Z,73.93
2018-09-25T22:40:37.027Z,73.79
2018-09-25T22:45:45.756Z,74.40
2018-09-25T22:50:54.429Z,73.98
2018-09-25T22:56:03.195Z,73.91
2018-09-25T23:01:12.081Z,74.66
2018-09-25T23:06:20.644Z,74.59
2018-09-25T23:11:29.348Z,74.72
2018-09-25T23:16:37.911Z,74.78
2018-09-25T23:21:46.507Z,74.27
2018-09-25T23:26:55.091Z,74.28
2018-09-25T23:32:03.931Z,74.19
2018-09-25T23:37:12.579Z,73.62
2018-09-25T23:42:25.280Z,73.11
2018-09-25T23:47:34.135Z,73.20
2018-09-25T23:52:41.247Z,73.57
2018-09-25T23:57:51.875Z,74.00
